createdAt,value
2017-11-23T00:01:14.611Z,99.90
2017-11-23T00:03:42.127Z,99.90
2017-11-23T00:06:10.396Z,99.90
2017-11-23T00:08:38.692Z,99.90
2017-11-23T00:11:06.185Z,99.90
2017-11-23T00:13:33.680Z,99.90
2017-11-23T00:16:01.968Z,99.90
2017-11-23T00:18:30.847Z,99.90
2017-11-23T00:20:59.124Z,99.90
2017-11-23T00:23:27.379Z,99.90
2017-11-23T00:25:54.899Z,99.90
2017-11-23T00:28:22.395Z,99.90
2017-11-23T00:30:49.913Z,99.90
2017-11-23T00:33:17.432Z,99.90
2017-11-23T00:35:45.712Z,99.90
2017-11-23T00:38:13.976Z,99.90
2017-11-23T00:40:41.492Z,99.90
2017-11-23T00:43:08.992Z,99.90
2017-11-23T00:45:36.503Z,99.90
2017-11-23T00:48:03.993Z,99.90
2017-11-23T00:50:31.524Z,99.90
2017-11-23T00:52:59.028Z,99.90
2017-11-23T00:55:27.312Z,99.90
2017-11-23T00:57:55.575Z,99.90
2017-11-23T01:00:23.085Z,99.90
2017-11-23T01:02:50.586Z,99.90
2017-11-23T01:05:18.112Z,99.90
2017-11-23T01:07:45.604Z,99.90
2017-11-23T01:10:13.096Z,99.90
2017-11-23T01:12:40.617Z,99.90
2017-11-23T01:15:08.108Z,99.90
2017-11-23T01:17:35.620Z,99.90
2017-11-23T01:20:03.127Z,99.90
2017-11-23T01:22:37.410Z,99.90
2017-11-23T01:25:04.899Z,99.90
2017-11-23T01:27:32.412Z,99.90
2017-11-23T01:29:59.907Z,99.90
2017-11-23T01:32:28.201Z,99.90
2017-11-23T01:34:55.705Z,99.90
2017-11-23T01:37:23.218Z,99.90
2017-11-23T01:39:50.720Z,99.90
2017-11-23T01:42:18.240Z,99.90
2017-11-23T01:44:45.736Z,99.90
2017-11-23T01:47:13.253Z,99.90
2017-11-23T01:49:40.747Z,99.90
2017-11-23T01:52:08.262Z,99.90
2017-11-23T01:54:35.766Z,99.90
2017-11-23T01:57:03.275Z,99.90
2017-11-23T01:59:30.777Z,99.90
2017-11-23T02:01:58.292Z,99.90
2017-11-23T02:04:25.793Z,99.90
2017-11-23T02:06:53.288Z,99.90
2017-11-23T02:09:21.568Z,99.90
2017-11-23T02:11:49.832Z,99.90
2017-11-23T02:14:18.109Z,99.90
2017-11-23T02:16:46.377Z,99.90
2017-11-23T02:19:13.895Z,99.90
2017-11-23T02:21:41.392Z,99.90
2017-11-23T02:24:08.907Z,99.90
2017-11-23T02:26:37.433Z,99.90
2017-11-23T02:29:04.951Z,99.90
2017-11-23T02:31:32.452Z,99.90
2017-11-23T02:34:00.757Z,99.90
2017-11-23T02:36:28.265Z,99.90
2017-11-23T02:38:55.788Z,99.90
2017-11-23T02:41:23.281Z,99.90
2017-11-23T02:43:50.797Z,99.90
2017-11-23T02:46:18.305Z,99.90
2017-11-23T02:48:45.821Z,99.90
2017-11-23T02:51:13.315Z,99.90
2017-11-23T02:53:40.833Z,99.90
2017-11-23T02:56:08.328Z,99.90
2017-11-23T02:58:35.849Z,99.90
2017-11-23T03:01:03.356Z,99.90
2017-11-23T03:03:30.892Z,99.90
2017-11-23T03:05:58.418Z,99.90
2017-11-23T03:08:25.926Z,99.90
2017-11-23T03:10:53.446Z,99.90
2017-11-23T03:13:20.947Z,99.90
2017-11-23T03:15:48.461Z,99.90
2017-11-23T03:18:15.956Z,99.90
2017-11-23T03:20:43.480Z,99.90
2017-11-23T03:23:10.997Z,99.90
2017-11-23T03:25:38.505Z,99.90
2017-11-23T03:28:06.006Z,99.90
2017-11-23T03:30:34.294Z,99.90
2017-11-23T03:33:02.560Z,99.90
2017-11-23T03:35:30.841Z,99.90
2017-11-23T03:37:59.104Z,99.90
2017-11-23T03:40:26.620Z,99.90
2017-11-23T03:42:54.112Z,99.90
2017-11-23T03:45:21.631Z,99.90
2017-11-23T03:47:49.135Z,99.90
2017-11-23T03:50:16.670Z,99.90
2017-11-23T03:52:44.180Z,99.90
2017-11-23T03:55:11.704Z,99.90
2017-11-23T03:57:39.199Z,99.90
2017-11-23T04:00:06.725Z,99.90
2017-11-23T04:02:34.685Z,99.90
2017-11-23T04:05:02.187Z,99.90
2017-11-23T04:07:29.696Z,99.90
2017-11-23T04:09:57.193Z,99.90
2017-11-23T04:12:24.708Z,99.90
2017-11-23T04:14:52.204Z,99.90
2017-11-23T04:17:20.492Z,99.90
2017-11-23T04:19:48.017Z,99.90
2017-11-23T04:22:15.537Z,99.90
2017-11-23T04:24:43.040Z,99.90
2017-11-23T04:27:11.321Z,99.90
2017-11-23T04:29:39.589Z,99.90
2017-11-23T04:32:07.105Z,99.90
2017-11-23T04:34:35.033Z,99.90
2017-11-23T04:37:02.589Z,99.90
2017-11-23T04:39:30.848Z,99.90
2017-11-23T04:41:58.388Z,99.90
2017-11-23T04:44:25.879Z,99.90
2017-11-23T04:46:54.160Z,99.90
2017-11-23T04:49:22.428Z,99.90
2017-11-23T04:51:50.713Z,99.90
2017-11-23T04:54:18.975Z,99.90
2017-11-23T04:56:47.257Z,99.90
2017-11-23T04:59:15.528Z,99.90
2017-11-23T05:01:43.808Z,99.90
2017-11-23T05:04:12.086Z,99.90
2017-11-23T05:06:40.349Z,99.90
2017-11-23T05:09:07.859Z,99.90
2017-11-23T05:11:35.351Z,99.90
2017-11-23T05:14:02.867Z,99.90
2017-11-23T05:16:30.365Z,99.90
2017-11-23T05:18:57.893Z,99.90
2017-11-23T05:21:25.389Z,99.90
2017-11-23T05:23:52.905Z,99.90
2017-11-23T05:26:20.411Z,99.90
2017-11-23T05:28:47.932Z,99.90
2017-11-23T05:31:15.423Z,99.90
2017-11-23T05:33:42.944Z,99.90
2017-11-23T05:36:10.439Z,99.90
2017-11-23T05:38:37.952Z,99.90
2017-11-23T05:41:05.444Z,99.90
2017-11-23T05:43:32.958Z,99.90
2017-11-23T05:46:00.452Z,99.90
2017-11-23T05:48:28.745Z,99.90
2017-11-23T05:50:56.261Z,99.90
2017-11-23T05:53:23.775Z,99.90
2017-11-23T05:55:52.033Z,99.90
2017-11-23T05:58:19.561Z,99.90
2017-11-23T06:00:47.062Z,99.90
2017-11-23T06:03:15.344Z,99.90
2017-11-23T06:05:43.636Z,99.90
2017-11-23T06:08:11.136Z,99.90
2017-11-23T06:10:38.681Z,99.90
2017-11-23T06:13:06.184Z,99.90
2017-11-23T06:15:33.721Z,99.90
2017-11-23T06:18:01.232Z,99.90
2017-11-23T06:20:28.752Z,99.90
2017-11-23T06:22:56.262Z,99.90
2017-11-23T06:25:23.781Z,99.90
2017-11-23T06:27:52.053Z,99.90
2017-11-23T06:30:20.340Z,99.90
2017-11-23T06:32:48.600Z,99.90
2017-11-23T06:35:16.136Z,99.90
2017-11-23T06:37:43.633Z,99.90
2017-11-23T06:40:11.909Z,99.90
2017-11-23T06:42:40.181Z,99.90
2017-11-23T06:45:08.501Z,99.90
2017-11-23T06:47:36.005Z,99.90
2017-11-23T06:50:03.528Z,99.90
2017-11-23T06:52:31.037Z,99.90
2017-11-23T06:54:59.340Z,99.90
2017-11-23T06:57:26.836Z,99.90
2017-11-23T06:59:54.329Z,99.90
2017-11-23T07:02:22.604Z,99.90
2017-11-23T07:04:50.864Z,99.90
2017-11-23T07:07:18.381Z,99.90
2017-11-23T07:09:45.903Z,99.90
2017-11-23T07:12:13.424Z,99.90
2017-11-23T07:14:40.921Z,99.90
2017-11-23T07:17:08.436Z,99.90
2017-11-23T07:19:35.937Z,99.90
2017-11-23T07:22:03.456Z,99.90
2017-11-23T07:24:30.956Z,99.90
2017-11-23T07:26:58.482Z,99.90
2017-11-23T07:29:25.990Z,99.90
2017-11-23T07:31:53.512Z,99.90
2017-11-23T07:34:21.781Z,99.90
2017-11-23T07:36:50.064Z,99.90
2017-11-23T07:39:18.328Z,99.90
2017-11-23T07:41:45.851Z,99.90
2017-11-23T07:44:13.352Z,99.90
2017-11-23T07:46:41.632Z,99.90
2017-11-23T07:49:09.892Z,99.90
2017-11-23T07:51:37.421Z,99.90
2017-11-23T07:54:05.693Z,99.90
2017-11-23T07:56:33.202Z,99.90
2017-11-23T07:59:01.493Z,99.90
2017-11-23T08:01:29.000Z,99.90
2017-11-23T08:03:56.527Z,99.90
2017-11-23T08:06:24.034Z,99.90
2017-11-23T08:08:51.563Z,99.90
2017-11-23T08:11:19.069Z,99.90
2017-11-23T08:13:47.368Z,99.90
2017-11-23T08:16:14.877Z,99.90
2017-11-23T08:18:42.392Z,99.90
2017-11-23T08:21:09.900Z,99.90
2017-11-23T08:23:37.423Z,99.90
2017-11-23T08:26:04.925Z,99.90
2017-11-23T08:28:32.445Z,99.90
2017-11-23T08:31:00.712Z,99.90
2017-11-23T08:33:28.228Z,99.90
2017-11-23T08:35:56.488Z,99.90
2017-11-23T08:38:24.004Z,99.90
2017-11-23T08:40:51.508Z,99.90
2017-11-23T08:43:19.024Z,99.90
2017-11-23T08:45:46.531Z,99.90
2017-11-23T08:48:14.069Z,99.90
2017-11-23T08:50:41.565Z,99.90
2017-11-23T08:53:09.076Z,99.90
2017-11-23T08:55:36.592Z,99.90
2017-11-23T08:58:04.096Z,99.90
2017-11-23T09:00:31.617Z,99.90
2017-11-23T09:02:59.116Z,99.90
2017-11-23T09:05:29.469Z,99.90
2017-11-23T09:07:56.964Z,99.90
2017-11-23T09:10:24.479Z,99.90
2017-11-23T09:12:52.744Z,99.90
2017-11-23T09:15:21.038Z,99.90
2017-11-23T09:17:49.303Z,99.90
2017-11-23T09:20:17.596Z,99.90
2017-11-23T09:22:46.657Z,99.90
2017-11-23T09:25:14.965Z,99.90
2017-11-23T09:27:43.233Z,99.90
2017-11-23T09:30:11.513Z,99.90
2017-11-23T09:32:39.785Z,99.90
2017-11-23T09:35:08.069Z,99.90
2017-11-23T09:37:35.594Z,99.90
2017-11-23T09:40:03.114Z,99.90
2017-11-23T09:42:30.618Z,99.90
2017-11-23T09:44:58.136Z,99.90
2017-11-23T09:47:25.636Z,99.90
2017-11-23T09:49:53.151Z,99.90
2017-11-23T09:52:20.665Z,99.90
2017-11-23T09:54:48.962Z,99.90
2017-11-23T09:57:16.478Z,99.90
2017-11-23T09:59:43.984Z,99.90
2017-11-23T10:02:11.504Z,99.90
2017-11-23T10:04:39.014Z,99.90
2017-11-23T10:07:06.533Z,99.90
2017-11-23T10:09:34.808Z,99.90
2017-11-23T10:12:03.100Z,99.90
2017-11-23T10:14:36.382Z,99.90
2017-11-23T10:17:04.672Z,99.90
2017-11-23T10:19:32.181Z,99.90
2017-11-23T10:21:59.705Z,99.90
2017-11-23T10:24:27.214Z,99.90
2017-11-23T10:26:55.516Z,99.20
2017-11-23T10:29:23.020Z,99.20
2017-11-23T10:31:50.544Z,97.30
2017-11-23T10:34:18.058Z,96.20
2017-11-23T10:36:45.581Z,95.70
2017-11-23T10:39:13.092Z,94.70
2017-11-23T10:41:41.375Z,92.20
2017-11-23T10:44:09.653Z,92.70
2017-11-23T10:46:37.941Z,96.30
2017-11-23T10:49:05.456Z,96.30
2017-11-23T10:51:33.000Z,97.80
2017-11-23T10:54:00.505Z,98.50
2017-11-23T10:56:28.767Z,98.60
2017-11-23T10:58:57.070Z,99.70
2017-11-23T11:01:24.583Z,99.70
2017-11-23T11:03:52.121Z,99.90
2017-11-23T11:06:19.624Z,99.90
2017-11-23T11:08:47.909Z,99.90
2017-11-23T11:11:16.185Z,99.90
2017-11-23T11:13:44.477Z,99.90
2017-11-23T11:16:11.990Z,99.90
2017-11-23T11:18:39.517Z,99.90
2017-11-23T11:21:07.020Z,99.90
2017-11-23T11:23:35.312Z,99.90
2017-11-23T11:26:03.584Z,99.90
2017-11-23T11:28:31.876Z,99.90
2017-11-23T11:30:59.380Z,99.90
2017-11-23T11:33:26.906Z,99.90
2017-11-23T11:35:54.413Z,99.90
2017-11-23T11:38:21.941Z,99.90
2017-11-23T11:40:49.447Z,99.90
2017-11-23T11:43:17.734Z,99.90
2017-11-23T11:45:45.240Z,99.90
2017-11-23T11:48:12.774Z,99.90
2017-11-23T11:50:40.285Z,99.90
2017-11-23T11:53:07.808Z,99.90
2017-11-23T11:55:35.328Z,99.90
2017-11-23T11:58:02.841Z,99.90
2017-11-23T12:00:30.365Z,99.90
2017-11-23T12:02:57.890Z,99.90
2017-11-23T12:05:26.173Z,99.90
2017-11-23T12:07:54.441Z,99.90
2017-11-23T12:10:22.728Z,99.90
2017-11-23T12:12:51.068Z,99.60
2017-11-23T12:15:36.975Z,99.60
2017-11-23T12:18:17.201Z,99.80
2017-11-23T12:20:56.600Z,99.60
2017-11-23T12:23:35.779Z,99.30
2017-11-23T12:26:03.302Z,99.40
2017-11-23T12:31:36.469Z,97.60
2017-11-23T12:34:04.745Z,98.50
2017-11-23T12:36:33.034Z,98.70
2017-11-23T12:39:01.309Z,97.70
2017-11-23T12:41:29.610Z,97.50
2017-11-23T12:43:57.123Z,97.50
2017-11-23T12:46:24.645Z,98.20
2017-11-23T12:48:52.149Z,97.90
2017-11-23T12:51:20.445Z,96.20
2017-11-23T12:53:47.953Z,96.20
2017-11-23T12:56:15.473Z,92.40
2017-11-23T12:58:42.977Z,91.60
2017-11-23T13:01:10.497Z,91.50
2017-11-23T13:03:38.007Z,90.70
2017-11-23T13:06:05.530Z,89.70
2017-11-23T13:08:33.037Z,82.20
2017-11-23T13:11:01.330Z,75.40
2017-11-23T13:13:28.844Z,75.20
2017-11-23T13:15:56.349Z,78.70
2017-11-23T13:18:23.865Z,78.50
2017-11-23T13:20:51.373Z,77.40
2017-11-23T13:23:18.898Z,78.80
2017-11-23T13:25:47.176Z,75.70
2017-11-23T13:28:15.455Z,83.70
2017-11-23T13:30:43.728Z,80.70
2017-11-23T13:33:12.016Z,82.80
2017-11-23T13:35:40.288Z,82.70
2017-11-23T13:38:08.589Z,78.60
2017-11-23T13:40:36.094Z,78.50
2017-11-23T13:43:03.625Z,80.50
2017-11-23T13:45:31.133Z,79.30
2017-11-23T13:47:59.421Z,71.40
2017-11-23T13:50:27.692Z,75.70
2017-11-23T13:52:55.986Z,73.70
2017-11-23T13:55:23.492Z,73.50
2017-11-23T13:57:51.017Z,69.80
2017-11-23T14:00:18.525Z,70.30
2017-11-23T14:02:46.816Z,68.80
2017-11-23T14:05:15.081Z,69.50
2017-11-23T14:07:43.397Z,69.70
2017-11-23T14:10:10.896Z,69.60
2017-11-23T14:12:38.438Z,69.10
2017-11-23T14:15:05.948Z,71.00
2017-11-23T14:17:34.225Z,69.20
2017-11-23T14:20:02.515Z,69.60
2017-11-23T14:22:30.033Z,69.60
2017-11-23T14:24:57.547Z,70.20
2017-11-23T14:27:25.052Z,68.90
2017-11-23T14:29:52.576Z,71.40
2017-11-23T14:32:20.076Z,71.90
2017-11-23T14:34:48.371Z,78.20
2017-11-23T14:37:16.641Z,77.30
2017-11-23T14:39:44.923Z,78.70
2017-11-23T14:42:13.194Z,79.10
2017-11-23T14:44:41.480Z,79.10
2017-11-23T14:47:08.988Z,79.10
2017-11-23T14:49:36.505Z,79.30
2017-11-23T14:52:04.009Z,84.40
2017-11-23T14:54:31.535Z,88.10
2017-11-23T14:56:59.041Z,90.50
2017-11-23T14:59:26.561Z,90.10
2017-11-23T15:01:54.072Z,89.90
2017-11-23T15:04:22.360Z,87.90
2017-11-23T15:06:49.860Z,88.00
2017-11-23T15:09:17.412Z,88.70
2017-11-23T15:11:44.921Z,90.30
2017-11-23T15:14:13.184Z,93.60
2017-11-23T15:16:40.705Z,93.60
2017-11-23T15:19:08.212Z,93.70
2017-11-23T15:21:36.494Z,91.50
2017-11-23T15:24:04.769Z,90.80
2017-11-23T15:26:33.055Z,91.70
2017-11-23T15:29:00.558Z,91.70
2017-11-23T15:31:28.089Z,93.90
2017-11-23T15:33:55.596Z,94.60
2017-11-23T15:36:23.112Z,94.20
2017-11-23T15:38:50.615Z,93.90
2017-11-23T15:41:18.140Z,94.20
2017-11-23T15:43:45.647Z,94.70
2017-11-23T15:46:13.928Z,94.60
2017-11-23T15:48:42.192Z,94.40
2017-11-23T15:51:09.707Z,94.40
2017-11-23T15:53:37.208Z,93.30
2017-11-23T15:56:05.497Z,92.70
2017-11-23T15:58:33.773Z,92.00
2017-11-23T16:01:02.060Z,91.90
2017-11-23T16:03:29.577Z,91.80
2017-11-23T16:05:57.100Z,90.70
2017-11-23T16:08:24.625Z,91.20
2017-11-23T16:10:52.929Z,92.10
2017-11-23T16:13:20.469Z,92.00
2017-11-23T16:15:48.023Z,92.40
2017-11-23T16:18:16.316Z,91.50
2017-11-23T16:20:43.821Z,91.50
2017-11-23T16:23:11.336Z,91.00
2017-11-23T16:25:38.886Z,91.10
2017-11-23T16:28:06.412Z,90.80
2017-11-23T16:30:33.921Z,91.20
2017-11-23T16:33:01.486Z,91.30
2017-11-23T16:35:28.993Z,91.60
2017-11-23T16:37:57.288Z,90.70
2017-11-23T16:40:30.436Z,90.70
2017-11-23T16:43:14.653Z,91.40
2017-11-23T16:45:47.776Z,91.10
2017-11-23T16:48:20.955Z,91.30
2017-11-23T16:50:53.364Z,92.10
2017-11-23T16:56:33.193Z,92.80
2017-11-23T16:59:16.548Z,92.70
2017-11-23T17:01:49.724Z,92.50
2017-11-23T17:04:17.775Z,93.50
2017-11-23T17:06:50.993Z,94.10
2017-11-23T17:12:28.831Z,94.50
2017-11-23T17:15:12.012Z,93.60
2017-11-23T17:17:55.328Z,93.60
2017-11-23T17:20:22.852Z,94.00
2017-11-23T17:22:51.135Z,94.40
2017-11-23T17:25:19.424Z,95.40
2017-11-23T17:27:46.954Z,95.40
2017-11-23T17:30:15.318Z,95.20
2017-11-23T17:32:42.833Z,95.20
2017-11-23T17:35:10.458Z,95.60
2017-11-23T17:37:38.079Z,94.80
2017-11-23T17:40:05.827Z,95.20
2017-11-23T17:42:33.358Z,96.00
2017-11-23T17:45:00.946Z,95.80
2017-11-23T17:47:28.589Z,96.00
2017-11-23T17:49:56.152Z,96.40
2017-11-23T17:52:23.726Z,97.90
2017-11-23T17:54:51.241Z,97.50
2017-11-23T17:57:19.592Z,99.90
2017-11-23T17:59:48.197Z,99.90
2017-11-23T18:02:16.611Z,99.90
2017-11-23T18:04:44.363Z,99.90
2017-11-23T18:07:11.909Z,99.90
2017-11-23T18:09:40.172Z,99.90
2017-11-23T18:12:08.462Z,99.90
2017-11-23T18:14:35.968Z,99.90
2017-11-23T18:17:03.489Z,99.90
2017-11-23T18:19:31.035Z,99.90
2017-11-23T18:21:58.612Z,99.90
2017-11-23T18:24:26.118Z,99.90
2017-11-23T18:26:53.646Z,99.90
2017-11-23T18:29:21.170Z,99.90
2017-11-23T18:31:48.696Z,99.90
2017-11-23T18:34:16.239Z,99.90
2017-11-23T18:36:43.799Z,99.90
2017-11-23T18:39:12.059Z,99.90
2017-11-23T18:41:39.565Z,99.90
2017-11-23T18:44:07.849Z,99.90
2017-11-23T18:46:36.122Z,99.90
2017-11-23T18:49:04.405Z,99.90
2017-11-23T18:51:32.713Z,99.90
2017-11-23T18:54:00.230Z,99.90
2017-11-23T18:56:28.496Z,99.90
2017-11-23T18:58:56.020Z,99.90
2017-11-23T19:01:23.565Z,99.90
2017-11-23T19:03:51.127Z,99.90
2017-11-23T19:06:18.755Z,99.90
2017-11-23T19:08:46.334Z,99.90
2017-11-23T19:11:14.831Z,99.90
2017-11-23T19:13:42.448Z,99.90
2017-11-23T19:16:10.075Z,99.90
2017-11-23T19:18:37.808Z,99.90
2017-11-23T19:21:05.382Z,99.90
2017-11-23T19:23:34.093Z,99.90
2017-11-23T19:26:01.651Z,99.90
2017-11-23T19:28:29.225Z,99.90
2017-11-23T19:30:57.539Z,99.90
2017-11-23T19:33:25.108Z,99.90
2017-11-23T19:35:52.652Z,99.90
2017-11-23T19:38:20.200Z,99.90
2017-11-23T19:40:48.508Z,99.90
2017-11-23T19:43:16.051Z,99.90
2017-11-23T19:45:43.564Z,99.90
2017-11-23T19:48:11.114Z,99.90
2017-11-23T19:50:38.678Z,99.90
2017-11-23T19:53:06.219Z,99.90
2017-11-23T19:55:33.786Z,99.90
2017-11-23T19:58:01.351Z,99.90
2017-11-23T20:00:28.923Z,99.90
2017-11-23T20:02:57.927Z,99.90
2017-11-23T20:05:26.251Z,99.90
2017-11-23T20:07:53.803Z,99.90
2017-11-23T20:10:21.311Z,99.90
2017-11-23T20:12:48.859Z,99.90
2017-11-23T20:15:16.425Z,99.90
2017-11-23T20:17:43.983Z,99.90
2017-11-23T20:20:11.589Z,99.90
2017-11-23T20:22:39.098Z,99.90
2017-11-23T20:25:06.664Z,99.90
2017-11-23T20:27:34.205Z,99.90
2017-11-23T20:30:01.777Z,99.90
2017-11-23T20:32:29.277Z,99.90
2017-11-23T20:34:56.860Z,99.90
2017-11-23T20:37:24.411Z,99.90
2017-11-23T20:39:51.954Z,99.90
2017-11-23T20:42:19.528Z,99.90
2017-11-23T20:44:47.067Z,99.90
2017-11-23T20:47:14.630Z,99.90
2017-11-23T20:49:42.175Z,99.90
2017-11-23T20:52:10.506Z,99.90
2017-11-23T20:54:38.047Z,99.90
2017-11-23T20:57:05.602Z,99.90
2017-11-23T20:59:33.156Z,99.90
2017-11-23T21:02:00.720Z,99.90
2017-11-23T21:04:28.216Z,99.90
2017-11-23T21:06:55.734Z,99.90
2017-11-23T21:09:23.301Z,99.90
2017-11-23T21:11:50.941Z,99.90
2017-11-23T21:14:18.519Z,99.90
2017-11-23T21:16:46.841Z,99.90
2017-11-23T21:19:14.386Z,99.90
2017-11-23T21:21:41.956Z,99.90
2017-11-23T21:24:09.499Z,99.90
2017-11-23T21:26:38.496Z,99.90
2017-11-23T21:29:06.840Z,99.90
2017-11-23T21:31:34.412Z,99.90
2017-11-23T21:34:01.968Z,99.90
2017-11-23T21:36:29.555Z,99.90
2017-11-23T21:38:57.077Z,99.90
2017-11-23T21:41:24.630Z,99.90
2017-11-23T21:43:52.153Z,99.90
2017-11-23T21:46:20.471Z,99.90
2017-11-23T21:48:47.992Z,99.90
2017-11-23T21:51:16.251Z,99.90
2017-11-23T21:53:43.820Z,99.90
2017-11-23T21:56:12.139Z,99.90
2017-11-23T21:58:39.686Z,99.90
2017-11-23T22:01:07.224Z,99.90
2017-11-23T22:03:35.552Z,99.90
2017-11-23T22:06:03.091Z,99.90
2017-11-23T22:08:30.679Z,99.90
2017-11-23T22:10:58.268Z,99.90
2017-11-23T22:13:27.767Z,99.90
2017-11-23T22:15:56.135Z,99.90
2017-11-23T22:18:23.677Z,99.90
2017-11-23T22:20:51.180Z,99.90
2017-11-23T22:23:19.464Z,99.90
2017-11-23T22:25:47.724Z,99.90
2017-11-23T22:28:16.054Z,99.90
2017-11-23T22:30:43.586Z,99.90
2017-11-23T22:33:11.162Z,99.90
2017-11-23T22:35:38.698Z,99.90
2017-11-23T22:38:06.193Z,99.90
2017-11-23T22:40:33.704Z,99.90
2017-11-23T22:43:02.011Z,99.90
2017-11-23T22:45:29.583Z,99.90
2017-11-23T22:47:57.132Z,99.90
2017-11-23T22:50:24.700Z,99.90
2017-11-23T22:52:52.192Z,99.90
2017-11-23T22:55:19.700Z,99.90
2017-11-23T22:57:47.207Z,99.90
2017-11-23T23:00:14.725Z,99.90
2017-11-23T23:02:42.267Z,99.90
2017-11-23T23:05:09.822Z,99.90
2017-11-23T23:07:37.319Z,99.90
2017-11-23T23:10:04.867Z,99.90
2017-11-23T23:12:33.172Z,99.90
2017-11-23T23:15:00.668Z,99.90
2017-11-23T23:17:28.223Z,99.90
2017-11-23T23:19:56.489Z,99.90
2017-11-23T23:22:24.016Z,99.90
2017-11-23T23:24:51.553Z,99.90
2017-11-23T23:27:19.079Z,99.90
2017-11-23T23:29:46.597Z,99.90
2017-11-23T23:32:14.118Z,99.90
2017-11-23T23:34:41.621Z,99.90
2017-11-23T23:37:09.145Z,99.90
2017-11-23T23:39:36.644Z,99.90
2017-11-23T23:42:04.932Z,99.90
2017-11-23T23:44:33.192Z,99.90
2017-11-23T23:47:00.718Z,99.90
2017-11-23T23:49:28.217Z,99.90
2017-11-23T23:51:56.481Z,99.90
2017-11-23T23:54:23.997Z,99.90
2017-11-23T23:56:51.492Z,99.90
2017-11-23T23:59:19.004Z,99.90
